createdAt,value
2022-12-05T00:00:06.248Z,2
2022-12-05T00:01:06.332Z,2
2022-12-05T00:02:06.095Z,2.6
2022-12-05T00:03:06.270Z,2.6
2022-12-05T00:04:05.906Z,2.6
2022-12-05T00:05:06.165Z,2.6
2022-12-05T00:06:05.585Z,2.6
2022-12-05T00:07:05.980Z,2.6
2022-12-05T00:08:06.770Z,2.6
2022-12-05T00:09:05.880Z,2.6
2022-12-05T00:10:06.243Z,2.6
2022-12-05T00:11:05.874Z,2.6
2022-12-05T00:12:06.423Z,2
2022-12-05T00:13:06.447Z,2.6
2022-12-05T00:14:05.844Z,2.6
2022-12-05T00:15:06.517Z,2.6
2022-12-05T00:16:05.984Z,2.6
2022-12-05T00:17:06.652Z,2.5
2022-12-05T00:18:05.867Z,2.5
2022-12-05T00:19:06.236Z,2.6
2022-12-05T00:20:06.268Z,2.5
2022-12-05T00:21:06.153Z,2.5
2022-12-05T00:22:05.428Z,2.5
2022-12-05T00:23:04.653Z,2.5
2022-12-05T00:24:05.298Z,2
2022-12-05T00:25:05.914Z,2.5
2022-12-05T00:26:06.320Z,2.5
2022-12-05T00:27:06.404Z,2.5
2022-12-05T00:28:05.804Z,2
2022-12-05T00:29:05.651Z,2
2022-12-05T00:30:06.087Z,2.5
2022-12-05T00:31:06.392Z,2.5
2022-12-05T00:32:06.133Z,2.5
2022-12-05T00:33:06.449Z,2.5
2022-12-05T00:34:05.793Z,2.5
2022-12-05T00:35:06.513Z,2.5
2022-12-05T00:36:05.856Z,2.5
2022-12-05T00:37:06.469Z,2.5
2022-12-05T00:38:05.942Z,2.5
2022-12-05T00:39:06.363Z,2.5
2022-12-05T00:40:05.739Z,2.5
2022-12-05T00:41:05.973Z,2.5
2022-12-05T00:42:06.319Z,2.5
2022-12-05T00:43:05.724Z,2.5
2022-12-05T00:44:06.143Z,2
2022-12-05T00:45:05.741Z,2.5
2022-12-05T00:46:06.498Z,2.5
2022-12-05T00:47:05.641Z,2.5
2022-12-05T00:48:05.198Z,2
2022-12-05T00:49:05.547Z,2.5
2022-12-05T00:50:06.025Z,2.4
2022-12-05T00:51:04.840Z,2.4
2022-12-05T00:52:04.960Z,2.5
2022-12-05T00:53:06.403Z,2.4
2022-12-05T00:54:05.845Z,2.5
2022-12-05T00:55:05.812Z,2.5
2022-12-05T00:56:06.559Z,2.5
2022-12-05T00:57:05.778Z,2.4
2022-12-05T00:58:06.130Z,2.4
2022-12-05T00:59:06.201Z,2.4
2022-12-05T01:00:05.707Z,2.4
2022-12-05T01:01:06.637Z,2.4
2022-12-05T01:02:05.898Z,2.4
2022-12-05T01:03:06.479Z,2.4
2022-12-05T01:04:05.780Z,2.5
2022-12-05T01:05:06.246Z,2.5
2022-12-05T01:06:05.736Z,2.4
2022-12-05T01:07:06.110Z,2.4
2022-12-05T01:08:05.921Z,2.4
2022-12-05T01:09:06.176Z,2.5
2022-12-05T01:10:05.622Z,2.5
2022-12-05T01:11:06.030Z,2.4
2022-12-05T01:12:06.485Z,2.4
2022-12-05T01:13:05.854Z,2.5
2022-12-05T01:14:06.313Z,2.5
2022-12-05T01:15:05.724Z,2.4
2022-12-05T01:16:06.781Z,2.4
2022-12-05T01:17:05.983Z,2.5
2022-12-05T01:18:06.223Z,2.4
2022-12-05T01:19:05.622Z,2.4
2022-12-05T01:20:06.193Z,2.5
2022-12-05T01:21:05.666Z,2.5
2022-12-05T01:22:05.692Z,2.5
2022-12-05T01:23:05.890Z,2
2022-12-05T01:24:06.147Z,2.5
2022-12-05T01:25:06.239Z,2.4
2022-12-05T01:26:06.029Z,2.4
2022-12-05T01:27:05.643Z,2.4
2022-12-05T01:28:05.962Z,2.4
2022-12-05T01:29:06.072Z,2.4
2022-12-05T01:30:06.247Z,2.4
2022-12-05T01:31:06.011Z,2.4
2022-12-05T01:32:06.500Z,2.4
2022-12-05T01:33:05.939Z,2
2022-12-05T01:34:06.452Z,2
2022-12-05T01:35:05.915Z,2
2022-12-05T01:36:06.483Z,2.4
2022-12-05T01:37:05.997Z,2.4
2022-12-05T01:38:06.414Z,2.4
2022-12-05T01:39:05.767Z,2.4
2022-12-05T01:40:06.398Z,2
2022-12-05T01:41:05.719Z,2.4
2022-12-05T01:42:06.132Z,2
2022-12-05T01:43:05.590Z,2.4
2022-12-05T01:44:05.961Z,2.4
2022-12-05T01:45:05.138Z,2.4
2022-12-05T01:46:05.752Z,2.4
2022-12-05T01:47:06.468Z,2
2022-12-05T01:48:05.852Z,2
2022-12-05T01:49:06.369Z,2.4
2022-12-05T01:50:05.721Z,2
2022-12-05T01:51:05.749Z,2
2022-12-05T01:52:06.160Z,2.4
2022-12-05T01:53:05.989Z,2.4
2022-12-05T01:54:06.466Z,2.4
2022-12-05T01:55:05.925Z,2.4
2022-12-05T01:56:06.363Z,2.4
2022-12-05T01:57:05.690Z,2.4
2022-12-05T01:58:06.147Z,2.4
2022-12-05T01:59:05.508Z,2
2022-12-05T02:00:06.076Z,2.4
2022-12-05T02:01:06.192Z,2.4
2022-12-05T02:02:06.528Z,2.4
2022-12-05T02:03:05.696Z,2.4
2022-12-05T02:04:06.123Z,2.4
2022-12-05T02:05:05.583Z,2.4
2022-12-05T02:06:06.031Z,2.4
2022-12-05T02:07:05.485Z,2.4
2022-12-05T02:08:05.088Z,2.4
2022-12-05T02:09:05.590Z,2.4
2022-12-05T02:10:05.979Z,2.4
2022-12-05T02:11:06.087Z,2.4
2022-12-05T02:12:05.543Z,2.4
2022-12-05T02:13:05.571Z,2.4
2022-12-05T02:14:06.169Z,2.4
2022-12-05T02:15:06.011Z,2.4
2022-12-05T02:16:06.107Z,2.4
2022-12-05T02:17:06.192Z,2.4
2022-12-05T02:18:05.464Z,2.3
2022-12-05T02:19:05.864Z,2.3
2022-12-05T02:20:06.340Z,2.3
2022-12-05T02:21:06.441Z,2.3
2022-12-05T02:22:05.910Z,2.3
2022-12-05T02:23:06.223Z,2.3
2022-12-05T02:24:05.727Z,2.3
2022-12-05T02:25:06.151Z,2.3
2022-12-05T02:26:05.529Z,2.3
2022-12-05T02:27:05.489Z,2.3
2022-12-05T02:28:06.023Z,2.3
2022-12-05T02:29:06.444Z,2.3
2022-12-05T02:30:05.844Z,2.3
2022-12-05T02:31:06.195Z,2.3
2022-12-05T02:32:04.665Z,2.3
2022-12-05T02:33:05.058Z,2
2022-12-05T02:34:04.690Z,2.3
2022-12-05T02:35:06.277Z,2
2022-12-05T02:36:05.634Z,2.3
2022-12-05T02:37:06.108Z,2.3
2022-12-05T02:38:06.145Z,2.3
2022-12-05T02:39:05.932Z,2.3
2022-12-05T02:40:06.407Z,2.2
2022-12-05T02:41:06.038Z,2.2
2022-12-05T02:42:06.556Z,2.2
2022-12-05T02:43:06.027Z,2.2
2022-12-05T02:44:06.517Z,2.2
2022-12-05T02:45:05.655Z,2.2
2022-12-05T02:46:06.682Z,2.2
2022-12-05T02:47:05.866Z,2.2
2022-12-05T02:48:06.323Z,2.2
2022-12-05T02:49:06.263Z,2.2
2022-12-05T02:50:05.752Z,2.2
2022-12-05T02:51:06.057Z,2
2022-12-05T02:52:05.504Z,2.2
2022-12-05T02:53:05.579Z,2.2
2022-12-05T02:54:05.998Z,2.2
2022-12-05T02:55:05.610Z,2.2
2022-12-05T02:56:05.971Z,2.2
2022-12-05T02:57:04.609Z,2.2
2022-12-05T02:58:04.555Z,2.1
2022-12-05T02:59:06.230Z,2.1
2022-12-05T03:00:05.617Z,2.2
2022-12-05T03:01:06.327Z,2.2
2022-12-05T03:02:05.687Z,2.2
2022-12-05T03:03:06.103Z,2.2
2022-12-05T03:04:06.822Z,2.1
2022-12-05T03:05:05.562Z,2.1
2022-12-05T03:06:06.173Z,2.1
2022-12-05T03:07:05.661Z,2.1
2022-12-05T03:08:06.284Z,2.1
2022-12-05T03:09:05.580Z,2.1
2022-12-05T03:10:06.023Z,2.1
2022-12-05T03:11:05.697Z,2.1
2022-12-05T03:12:06.081Z,2.1
2022-12-05T03:13:06.369Z,2.1
2022-12-05T03:14:05.809Z,2.1
2022-12-05T03:15:06.434Z,2.1
2022-12-05T03:16:05.727Z,2.1
2022-12-05T03:17:06.402Z,2.1
2022-12-05T03:18:05.591Z,2.1
2022-12-05T03:19:05.479Z,2
2022-12-05T03:20:05.126Z,2
2022-12-05T03:21:04.818Z,2.1
2022-12-05T03:22:06.316Z,2.1
2022-12-05T03:23:06.320Z,2
2022-12-05T03:24:05.828Z,2
2022-12-05T03:25:05.701Z,2
2022-12-05T03:26:06.370Z,2.1
2022-12-05T03:27:06.231Z,2
2022-12-05T03:28:05.707Z,2
2022-12-05T03:29:06.132Z,2
2022-12-05T03:30:05.747Z,2
2022-12-05T03:31:06.420Z,2
2022-12-05T03:32:05.566Z,2
2022-12-05T03:33:05.896Z,2
2022-12-05T03:34:06.287Z,2
2022-12-05T03:35:05.942Z,2
2022-12-05T03:36:06.308Z,2
2022-12-05T03:37:05.992Z,2
2022-12-05T03:38:06.361Z,2
2022-12-05T03:39:05.983Z,2
2022-12-05T03:40:06.413Z,2
2022-12-05T03:41:05.918Z,2
2022-12-05T03:42:06.267Z,2
2022-12-05T03:43:06.305Z,2
2022-12-05T03:44:05.735Z,2
2022-12-05T03:45:06.229Z,2
2022-12-05T03:46:06.106Z,2
2022-12-05T03:47:06.209Z,2
2022-12-05T03:48:05.818Z,2
2022-12-05T03:49:05.504Z,2
2022-12-05T03:50:05.987Z,2
2022-12-05T03:51:05.406Z,2
2022-12-05T03:52:04.808Z,2
2022-12-05T03:53:36.446Z,2
2022-12-05T03:54:06.474Z,2
2022-12-05T03:55:05.884Z,2
2022-12-05T03:56:05.984Z,2
2022-12-05T03:57:06.029Z,1
2022-12-05T03:58:05.844Z,2
2022-12-05T03:59:06.519Z,2
2022-12-05T04:00:05.795Z,2
2022-12-05T04:01:05.743Z,2
2022-12-05T04:02:06.263Z,2
2022-12-05T04:03:05.628Z,2
2022-12-05T04:04:06.061Z,2
2022-12-05T04:05:05.894Z,2
2022-12-05T04:06:06.430Z,2
2022-12-05T04:07:05.743Z,2
2022-12-05T04:08:06.416Z,2
2022-12-05T04:09:05.988Z,2
2022-12-05T04:10:06.128Z,1.9
2022-12-05T04:11:05.886Z,2
2022-12-05T04:12:06.361Z,2
2022-12-05T04:13:05.741Z,2
2022-12-05T04:14:06.412Z,1.9
2022-12-05T04:15:06.294Z,1.9
2022-12-05T04:16:06.299Z,2
2022-12-05T04:17:05.627Z,1.9
2022-12-05T04:18:06.047Z,2
2022-12-05T04:19:06.289Z,2
2022-12-05T04:20:05.792Z,2
2022-12-05T04:21:05.717Z,2
2022-12-05T04:22:05.465Z,2
2022-12-05T04:23:04.981Z,2
2022-12-05T04:24:06.513Z,2
2022-12-05T04:25:04.657Z,2
2022-12-05T04:26:05.984Z,2
2022-12-05T04:27:05.848Z,2
2022-12-05T04:28:06.297Z,2
2022-12-05T04:29:06.314Z,2
2022-12-05T04:30:05.771Z,2
2022-12-05T04:31:06.055Z,2
2022-12-05T04:32:06.165Z,2
2022-12-05T04:33:05.628Z,1
2022-12-05T04:34:05.994Z,1.9
2022-12-05T04:35:05.875Z,1.9
2022-12-05T04:36:06.412Z,1.9
2022-12-05T04:37:05.792Z,1.9
2022-12-05T04:38:06.291Z,1.9
2022-12-05T04:39:06.237Z,1.9
2022-12-05T04:40:05.522Z,1.9
2022-12-05T04:41:05.611Z,1.9
2022-12-05T04:42:05.988Z,1.9
2022-12-05T04:43:06.407Z,1.9
2022-12-05T04:44:05.993Z,1.9
2022-12-05T04:45:06.424Z,1.9
2022-12-05T04:46:06.516Z,1
2022-12-05T04:47:05.678Z,1.8
2022-12-05T04:48:05.146Z,1.9
2022-12-05T04:49:05.759Z,1.8
2022-12-05T04:50:05.934Z,1.8
2022-12-05T04:51:04.841Z,1.8
2022-12-05T04:52:05.264Z,1.8
2022-12-05T04:53:06.459Z,1.8
2022-12-05T04:54:05.853Z,1.8
2022-12-05T04:55:06.059Z,1.8
2022-12-05T04:56:05.542Z,1.8
2022-12-05T04:57:06.245Z,1.8
2022-12-05T04:58:06.096Z,1.8
2022-12-05T04:59:06.429Z,1.8
2022-12-05T05:00:06.016Z,1.8
2022-12-05T05:01:06.415Z,1.8
2022-12-05T05:02:06.545Z,1.8
2022-12-05T05:03:06.249Z,1.8
2022-12-05T05:04:05.867Z,1.7
2022-12-05T05:05:08.319Z,1.8
2022-12-05T05:06:06.118Z,1
2022-12-05T05:07:05.545Z,1.8
2022-12-05T05:08:06.353Z,1.8
2022-12-05T05:09:05.502Z,1
2022-12-05T05:10:05.988Z,1.8
2022-12-05T05:11:04.819Z,1.7
2022-12-05T05:12:06.325Z,1.7
2022-12-05T05:13:04.592Z,1.7
2022-12-05T05:14:05.841Z,1.7
2022-12-05T05:15:05.752Z,1.7
2022-12-05T05:16:06.590Z,1.7
2022-12-05T05:17:05.691Z,1.7
2022-12-05T05:18:06.206Z,1.7
2022-12-05T05:19:06.025Z,1.7
2022-12-05T05:20:05.790Z,1.7
2022-12-05T05:21:06.240Z,1.7
2022-12-05T05:22:05.592Z,1.7
2022-12-05T05:23:06.198Z,1.7
2022-12-05T05:24:05.746Z,1.7
2022-12-05T05:25:06.171Z,1.7
2022-12-05T05:26:05.553Z,1.7
2022-12-05T05:27:05.492Z,1
2022-12-05T05:28:06.032Z,1.7
2022-12-05T05:29:06.104Z,1.7
2022-12-05T05:30:05.545Z,1.7
2022-12-05T05:31:06.394Z,1.7
2022-12-05T05:32:05.573Z,1.6
2022-12-05T05:33:05.827Z,1.7
2022-12-05T05:34:13.301Z,1.7
2022-12-05T05:35:05.605Z,1.7
2022-12-05T05:36:05.995Z,1.7
2022-12-05T05:37:05.522Z,1.7
2022-12-05T05:38:05.954Z,1.7
2022-12-05T05:39:05.353Z,1.7
2022-12-05T05:40:13.558Z,1.7
2022-12-05T05:41:05.809Z,1.7
2022-12-05T05:42:05.170Z,1.7
2022-12-05T05:43:05.590Z,1
2022-12-05T05:44:04.821Z,1.7
2022-12-05T05:45:05.083Z,1.7
2022-12-05T05:46:04.968Z,1.7
2022-12-05T05:47:06.237Z,1.7
2022-12-05T05:48:05.968Z,1.7
2022-12-05T05:49:05.571Z,1.7
2022-12-05T05:50:06.404Z,1.7
2022-12-05T05:51:06.353Z,1.7
2022-12-05T05:52:05.636Z,1.7
2022-12-05T05:53:06.194Z,1
2022-12-05T05:54:06.372Z,1.7
2022-12-05T05:55:05.892Z,1.7
2022-12-05T05:56:06.310Z,1.7
2022-12-05T05:57:05.905Z,1.7
2022-12-05T05:58:06.182Z,1.7
2022-12-05T05:59:05.718Z,1.7
2022-12-05T06:00:06.460Z,1.7
2022-12-05T06:01:05.923Z,1.7
2022-12-05T06:02:06.352Z,1.7
2022-12-05T06:03:06.234Z,1.7
2022-12-05T06:04:06.524Z,1.7
2022-12-05T06:05:05.515Z,1.7
2022-12-05T06:06:05.948Z,1.7
2022-12-05T06:07:06.446Z,1.7
2022-12-05T06:08:06.437Z,1.7
2022-12-05T06:09:05.629Z,1.7
2022-12-05T06:10:06.333Z,1.7
2022-12-05T06:11:06.076Z,1.7
2022-12-05T06:12:06.540Z,1
2022-12-05T06:13:06.431Z,1.7
2022-12-05T06:14:04.613Z,1.7
2022-12-05T06:15:04.924Z,1.7
2022-12-05T06:16:06.685Z,1
2022-12-05T06:17:04.845Z,1
2022-12-05T06:18:06.170Z,1.7
2022-12-05T06:19:06.417Z,1.7
2022-12-05T06:20:05.867Z,1.7
2022-12-05T06:21:06.305Z,1.7
2022-12-05T06:22:05.846Z,1.7
2022-12-05T06:23:06.258Z,1.7
2022-12-05T06:24:06.346Z,1.7
2022-12-05T06:25:05.780Z,1.7
2022-12-05T06:26:06.103Z,1.7
2022-12-05T06:27:05.588Z,1.7
2022-12-05T06:28:06.454Z,1
2022-12-05T06:29:05.675Z,1.7
2022-12-05T06:30:06.267Z,1.7
2022-12-05T06:31:06.036Z,1.7
2022-12-05T06:32:06.348Z,1.7
2022-12-05T06:33:06.492Z,1.7
2022-12-05T06:34:05.762Z,1.7
2022-12-05T06:35:06.289Z,1.7
2022-12-05T06:36:06.073Z,1.7
2022-12-05T06:37:05.528Z,1.7
2022-12-05T06:38:05.918Z,1.7
2022-12-05T06:39:05.578Z,1.7
2022-12-05T06:40:05.786Z,1.7
2022-12-05T06:41:06.428Z,1.7
2022-12-05T06:42:05.688Z,1.7
2022-12-05T06:43:06.198Z,1.7
2022-12-05T06:44:06.761Z,1.7
2022-12-05T06:45:05.778Z,1.7
2022-12-05T06:46:06.811Z,1.7
2022-12-05T06:47:05.938Z,1.7
2022-12-05T06:48:05.947Z,1.7
2022-12-05T06:49:06.489Z,1.7
2022-12-05T06:50:05.892Z,1.7
2022-12-05T06:51:06.379Z,1.7
2022-12-05T06:52:05.895Z,1.8
2022-12-05T06:53:06.312Z,1.8
2022-12-05T06:54:05.741Z,1.8
2022-12-05T06:55:06.220Z,1.7
2022-12-05T06:56:06.060Z,1.8
2022-12-05T06:57:06.458Z,1.7
2022-12-05T06:58:05.898Z,1.8
2022-12-05T06:59:06.286Z,1.8
2022-12-05T07:00:06.202Z,1.7
2022-12-05T07:01:06.947Z,1.8
2022-12-05T07:02:06.023Z,1.8
2022-12-05T07:03:06.214Z,1.8
2022-12-05T07:04:05.672Z,1.8
2022-12-05T07:05:05.487Z,1.8
2022-12-05T07:06:05.237Z,1.8
2022-12-05T07:07:04.872Z,1.8
2022-12-05T07:08:05.141Z,1.8
2022-12-05T07:09:06.375Z,1.7
2022-12-05T07:10:05.901Z,1.8
2022-12-05T07:11:06.357Z,1.8
2022-12-05T07:12:05.961Z,1.8
2022-12-05T07:13:06.356Z,1.8
2022-12-05T07:14:46.811Z,1.8
2022-12-05T07:15:06.036Z,1.8
2022-12-05T07:16:05.819Z,1.8
2022-12-05T07:17:05.965Z,1.7
2022-12-05T07:18:06.316Z,1.7
2022-12-05T07:19:05.824Z,1.8
2022-12-05T07:20:06.307Z,1.7
2022-12-05T07:21:21.244Z,1.7
2022-12-05T07:22:09.419Z,1.7
2022-12-05T07:23:05.713Z,1.8
2022-12-05T07:24:05.512Z,1.8
2022-12-05T07:25:06.049Z,1
2022-12-05T07:26:06.398Z,1
2022-12-05T07:27:05.991Z,1.8
2022-12-05T07:28:06.332Z,1.8
2022-12-05T07:29:05.866Z,1.8
2022-12-05T07:30:06.657Z,1
2022-12-05T07:31:06.185Z,1
2022-12-05T07:32:05.932Z,1.8
2022-12-05T07:33:05.993Z,1.8
2022-12-05T07:34:06.370Z,1.8
2022-12-05T07:35:05.817Z,1.8
2022-12-05T07:36:05.254Z,1.8
2022-12-05T07:37:05.657Z,1.8
2022-12-05T07:38:05.475Z,1.8
2022-12-05T07:39:06.231Z,1
2022-12-05T07:40:05.489Z,1.8
2022-12-05T07:41:11.715Z,1.8
2022-12-05T07:42:06.463Z,1.8
2022-12-05T07:43:06.007Z,1.8
2022-12-05T07:44:06.140Z,1.8
2022-12-05T07:45:05.622Z,1.8
2022-12-05T07:46:05.671Z,1.8
2022-12-05T07:47:06.058Z,1.8
2022-12-05T07:48:05.999Z,1.8
2022-12-05T07:49:06.264Z,1.8
2022-12-05T07:50:05.654Z,1.8
2022-12-05T07:51:05.543Z,1.8
2022-12-05T07:52:05.965Z,1.8
2022-12-05T07:53:05.643Z,1.8
2022-12-05T07:54:05.905Z,1.8
2022-12-05T07:55:05.572Z,1.9
2022-12-05T07:56:06.005Z,1.9
2022-12-05T07:57:06.422Z,1.9
2022-12-05T07:58:05.845Z,1.9
2022-12-05T07:59:06.275Z,1.9
2022-12-05T08:00:05.711Z,1.9
2022-12-05T08:01:05.857Z,1.9
2022-12-05T08:02:06.288Z,1
2022-12-05T08:03:05.754Z,2
2022-12-05T08:04:07.669Z,1.9
2022-12-05T08:05:06.151Z,1.9
2022-12-05T08:06:05.607Z,1.9
2022-12-05T08:07:05.563Z,1.9
2022-12-05T08:08:05.518Z,2
2022-12-05T08:09:05.982Z,1.9
2022-12-05T08:10:05.100Z,1.9
2022-12-05T08:11:06.444Z,1.9
2022-12-05T08:12:05.958Z,1.9
2022-12-05T08:13:06.316Z,1.9
2022-12-05T08:14:05.699Z,1.9
2022-12-05T08:15:06.117Z,2
2022-12-05T08:16:05.883Z,1.9
2022-12-05T08:17:06.321Z,2
2022-12-05T08:18:06.379Z,2
2022-12-05T08:19:06.271Z,2
2022-12-05T08:20:05.657Z,2
2022-12-05T08:21:06.034Z,2
2022-12-05T08:22:05.736Z,2
2022-12-05T08:23:06.237Z,2
2022-12-05T08:24:05.674Z,2
2022-12-05T08:25:06.146Z,2
2022-12-05T08:26:05.564Z,2
2022-12-05T08:27:06.025Z,2.1
2022-12-05T08:28:05.605Z,2
2022-12-05T08:29:05.995Z,2
2022-12-05T08:30:06.572Z,2.1
2022-12-05T08:31:06.064Z,2.1
2022-12-05T08:32:06.112Z,2.1
2022-12-05T08:33:05.596Z,2.1
2022-12-05T08:34:05.970Z,2.1
2022-12-05T08:35:06.130Z,2.2
2022-12-05T08:36:05.612Z,2
2022-12-05T08:37:05.962Z,2.2
2022-12-05T08:38:04.672Z,2.2
2022-12-05T08:39:06.301Z,2.2
2022-12-05T08:40:05.792Z,2.2
2022-12-05T08:41:06.253Z,2.2
2022-12-05T08:42:05.916Z,2.2
2022-12-05T08:43:06.397Z,2.3
2022-12-05T08:44:06.106Z,2.3
2022-12-05T08:45:05.603Z,2.3
2022-12-05T08:46:06.494Z,2.3
2022-12-05T08:47:05.671Z,2.3
2022-12-05T08:48:05.851Z,2.3
2022-12-05T08:49:06.276Z,2.3
2022-12-05T08:50:06.476Z,2.3
2022-12-05T08:51:05.836Z,2.3
2022-12-05T08:52:06.362Z,2.3
2022-12-05T08:53:05.649Z,2.3
2022-12-05T08:54:06.017Z,2.4
2022-12-05T08:55:06.433Z,2.3
2022-12-05T08:56:05.934Z,2.3
2022-12-05T08:57:05.600Z,2.4
2022-12-05T08:58:06.079Z,2.3
2022-12-05T08:59:10.222Z,2.4
2022-12-05T09:00:06.290Z,2.4
2022-12-05T09:01:05.773Z,2.4
2022-12-05T09:02:06.215Z,2
2022-12-05T09:03:05.257Z,2.4
2022-12-05T09:04:05.610Z,2.4
2022-12-05T09:05:31.560Z,2.4
2022-12-05T09:06:04.877Z,2.4
2022-12-05T09:07:05.652Z,2.4
2022-12-05T09:08:06.839Z,2.4
2022-12-05T09:09:06.459Z,2.4
2022-12-05T09:10:06.429Z,2.4
2022-12-05T09:11:05.886Z,2.5
2022-12-05T09:12:06.329Z,2.5
2022-12-05T09:13:06.347Z,2.5
2022-12-05T09:14:05.801Z,2.5
2022-12-05T09:15:06.531Z,2.5
2022-12-05T09:16:06.061Z,2.6
2022-12-05T09:17:05.759Z,2.6
2022-12-05T09:18:06.257Z,2.6
2022-12-05T09:19:05.509Z,2.6
2022-12-05T09:20:05.857Z,2.6
2022-12-05T09:21:05.664Z,2.6
2022-12-05T09:22:06.147Z,2.7
2022-12-05T09:23:05.650Z,2.7
2022-12-05T09:24:06.241Z,2.7
2022-12-05T09:25:05.592Z,2
2022-12-05T09:26:06.171Z,2
2022-12-05T09:27:05.559Z,2.8
2022-12-05T09:28:06.458Z,2.8
2022-12-05T09:29:07.922Z,2.7
2022-12-05T09:30:06.558Z,2.7
2022-12-05T09:31:06.401Z,2.8
2022-12-05T09:32:05.525Z,2.8
2022-12-05T09:33:05.508Z,2.8
2022-12-05T09:34:05.855Z,2.8
2022-12-05T09:35:06.289Z,2.8
2022-12-05T09:36:05.404Z,2.8
2022-12-05T09:37:40.154Z,2.8
2022-12-05T09:38:05.899Z,2.8
2022-12-05T09:39:06.315Z,2.9
2022-12-05T09:40:06.195Z,2.9
2022-12-05T09:41:05.631Z,2.9
2022-12-05T09:42:05.867Z,2.8
2022-12-05T09:43:06.391Z,2.9
2022-12-05T09:44:05.866Z,2.9
2022-12-05T09:45:06.683Z,2.9
2022-12-05T09:46:06.480Z,2.9
2022-12-05T09:47:05.620Z,2.9
2022-12-05T09:48:05.700Z,2.9
2022-12-05T09:49:06.048Z,2.9
2022-12-05T09:50:05.756Z,2.9
2022-12-05T09:51:06.187Z,2.9
2022-12-05T09:52:05.597Z,2.9
2022-12-05T09:53:05.992Z,2
2022-12-05T09:54:05.755Z,2.9
2022-12-05T09:55:06.219Z,2.9
2022-12-05T09:56:05.685Z,2.9
2022-12-05T09:57:05.292Z,2.9
2022-12-05T09:58:06.335Z,3
2022-12-05T09:59:05.818Z,2.9
2022-12-05T10:00:06.141Z,2.9
2022-12-05T10:01:06.486Z,2.9
2022-12-05T10:02:06.602Z,2.9
2022-12-05T10:03:05.743Z,3
2022-12-05T10:04:06.325Z,3
2022-12-05T10:05:07.078Z,3
2022-12-05T10:06:06.273Z,3
2022-12-05T10:07:05.650Z,3
2022-12-05T10:08:06.209Z,3
2022-12-05T10:09:06.518Z,3
2022-12-05T10:10:05.959Z,3
2022-12-05T10:11:06.390Z,3
2022-12-05T10:12:05.569Z,3
2022-12-05T10:13:06.006Z,3
2022-12-05T10:14:06.031Z,3
2022-12-05T10:15:06.542Z,3
2022-12-05T10:16:05.886Z,3.1
2022-12-05T10:17:06.305Z,3.1
2022-12-05T10:18:06.496Z,3.1
2022-12-05T10:19:05.849Z,3.2
2022-12-05T10:20:06.322Z,3.2
2022-12-05T10:21:05.217Z,3.2
2022-12-05T10:22:06.432Z,3.2
2022-12-05T10:23:05.808Z,3.1
2022-12-05T10:24:06.400Z,3.1
2022-12-05T10:25:05.847Z,2
2022-12-05T10:26:06.256Z,3.3
2022-12-05T10:27:05.832Z,3.3
2022-12-05T10:28:06.026Z,3.3
2022-12-05T10:29:06.460Z,3.3
2022-12-05T10:30:05.984Z,3.3
2022-12-05T10:31:06.316Z,3.3
2022-12-05T10:32:05.823Z,3.3
2022-12-05T10:33:13.324Z,3.3
2022-12-05T10:34:05.871Z,3.3
2022-12-05T10:35:06.334Z,3.4
2022-12-05T10:36:05.628Z,3.4
2022-12-05T10:37:05.993Z,3.4
2022-12-05T10:38:05.871Z,3.4
2022-12-05T10:39:13.451Z,3
2022-12-05T10:40:05.685Z,3.3
2022-12-05T10:41:06.054Z,3.4
2022-12-05T10:42:06.334Z,3.4
2022-12-05T10:43:04.780Z,3
2022-12-05T10:44:04.796Z,3.5
2022-12-05T10:45:06.316Z,3.4
2022-12-05T10:46:07.448Z,3.4
2022-12-05T10:47:06.393Z,3.4
2022-12-05T10:48:05.724Z,3.4
2022-12-05T10:49:05.932Z,3.4
2022-12-05T10:50:05.796Z,3.4
2022-12-05T10:51:06.164Z,3.4
2022-12-05T10:52:06.443Z,3.4
2022-12-05T10:53:05.913Z,3.4
2022-12-05T10:54:06.330Z,3.4
2022-12-05T10:55:05.818Z,3
2022-12-05T10:56:36.238Z,3.5
2022-12-05T10:57:06.112Z,3.5
2022-12-05T10:58:05.595Z,3.5
2022-12-05T10:59:06.451Z,3.5
2022-12-05T11:00:06.917Z,3.5
2022-12-05T11:01:06.839Z,3.5
2022-12-05T11:02:06.484Z,3.5
2022-12-05T11:03:06.468Z,3.5
2022-12-05T11:04:12.083Z,3.4
2022-12-05T11:05:06.409Z,3.4
2022-12-05T11:06:05.080Z,3.5
2022-12-05T11:07:05.390Z,3.5
2022-12-05T11:08:06.293Z,3.5
2022-12-05T11:09:09.723Z,3.6
2022-12-05T11:10:06.138Z,3
2022-12-05T11:11:06.461Z,3.5
2022-12-05T11:12:05.853Z,3
2022-12-05T11:13:06.418Z,3.5
2022-12-05T11:14:06.163Z,3.5
2022-12-05T11:15:05.993Z,3.6
2022-12-05T11:16:06.447Z,3.6
2022-12-05T11:17:05.629Z,3.6
2022-12-05T11:18:06.097Z,3.6
2022-12-05T11:19:05.535Z,3.6
2022-12-05T11:20:05.645Z,3.6
2022-12-05T11:21:06.111Z,3.6
2022-12-05T11:22:06.553Z,3.6
2022-12-05T11:23:05.947Z,3.6
2022-12-05T11:24:06.405Z,3.6
2022-12-05T11:25:05.805Z,3.6
2022-12-05T11:26:05.693Z,3.6
2022-12-05T11:27:05.934Z,3.6
2022-12-05T11:28:06.288Z,3.7
2022-12-05T11:29:05.603Z,3.7
2022-12-05T11:30:04.967Z,3.7
2022-12-05T11:31:06.779Z,3.7
2022-12-05T11:32:06.455Z,3.7
2022-12-05T11:33:05.864Z,3.7
2022-12-05T11:34:06.585Z,3.7
2022-12-05T11:35:06.051Z,3.7
2022-12-05T11:36:05.545Z,3.7
2022-12-05T11:37:06.046Z,3.6
2022-12-05T11:38:06.045Z,3.6
2022-12-05T11:39:06.497Z,3.6
2022-12-05T11:40:05.770Z,3.6
2022-12-05T11:41:06.108Z,3.6
2022-12-05T11:42:06.583Z,3.7
2022-12-05T11:43:05.944Z,3.7
2022-12-05T11:44:06.473Z,3.7
2022-12-05T11:45:05.974Z,3.7
2022-12-05T11:46:06.042Z,3
2022-12-05T11:47:06.497Z,3.7
2022-12-05T11:48:05.885Z,3.7
2022-12-05T11:49:05.791Z,3.7
2022-12-05T11:50:05.071Z,3.8
2022-12-05T11:51:05.291Z,3.7
2022-12-05T11:52:04.714Z,3.7
2022-12-05T11:53:04.870Z,3.7
2022-12-05T11:54:06.090Z,3.8
2022-12-05T11:55:10.608Z,3.8
2022-12-05T11:56:05.501Z,3.8
2022-12-05T11:57:05.621Z,3.8
2022-12-05T11:58:06.229Z,3.8
2022-12-05T11:59:06.091Z,3.8
2022-12-05T12:00:05.686Z,3.8
2022-12-05T12:01:05.640Z,3.8
2022-12-05T12:02:06.562Z,3
2022-12-05T12:03:06.005Z,3.8
2022-12-05T12:04:06.464Z,3.7
2022-12-05T12:05:06.430Z,3.8
2022-12-05T12:06:05.971Z,3.8
2022-12-05T12:07:05.731Z,3.8
2022-12-05T12:08:06.548Z,3.8
2022-12-05T12:09:06.342Z,3
2022-12-05T12:10:12.529Z,3.8
2022-12-05T12:11:06.049Z,3.8
2022-12-05T12:12:06.061Z,3.8
2022-12-05T12:13:05.544Z,3.8
2022-12-05T12:14:05.799Z,3.8
2022-12-05T12:15:06.347Z,3.8
2022-12-05T12:16:12.302Z,3.9
2022-12-05T12:17:05.747Z,3.8
2022-12-05T12:18:06.139Z,3.8
2022-12-05T12:19:06.216Z,3.8
2022-12-05T12:20:05.740Z,3.8
2022-12-05T12:21:06.450Z,3.8
2022-12-05T12:22:06.163Z,3.8
2022-12-05T12:23:06.581Z,3
2022-12-05T12:24:05.922Z,3.9
2022-12-05T12:25:06.433Z,3.9
2022-12-05T12:26:05.946Z,3.9
2022-12-05T12:27:06.258Z,3.9
2022-12-05T12:28:08.926Z,3.8
2022-12-05T12:29:06.079Z,3.8
2022-12-05T12:30:05.466Z,3.9
2022-12-05T12:31:05.852Z,3
2022-12-05T12:32:06.604Z,3.9
2022-12-05T12:33:05.618Z,3.9
2022-12-05T12:34:06.028Z,3.9
2022-12-05T12:35:05.994Z,3.9
2022-12-05T12:36:06.400Z,3.9
2022-12-05T12:37:05.873Z,3.9
2022-12-05T12:38:06.130Z,3.9
2022-12-05T12:39:04.561Z,3.9
2022-12-05T12:40:05.940Z,3.9
2022-12-05T12:41:05.648Z,3.9
2022-12-05T12:42:05.891Z,3.9
2022-12-05T12:43:06.324Z,3.9
2022-12-05T12:44:05.990Z,3.9
2022-12-05T12:45:06.229Z,3.9
2022-12-05T12:46:13.411Z,3.9
2022-12-05T12:47:05.726Z,3.9
2022-12-05T12:48:06.072Z,3.9
2022-12-05T12:49:05.819Z,3.9
2022-12-05T12:50:05.442Z,3.9
2022-12-05T12:51:06.063Z,3.9
2022-12-05T12:52:06.569Z,3.9
2022-12-05T12:53:05.946Z,3
2022-12-05T12:54:06.413Z,4
2022-12-05T12:55:18.975Z,3
2022-12-05T12:56:06.449Z,4
2022-12-05T12:57:09.321Z,4
2022-12-05T12:58:06.341Z,4
2022-12-05T12:59:05.801Z,3
2022-12-05T13:00:05.934Z,3
2022-12-05T13:01:06.324Z,4
2022-12-05T13:02:05.750Z,4
2022-12-05T13:03:04.871Z,4
2022-12-05T13:04:05.082Z,4
2022-12-05T13:05:05.839Z,4
2022-12-05T13:06:05.940Z,4
2022-12-05T13:07:05.800Z,4
2022-12-05T13:08:06.396Z,4
2022-12-05T13:09:06.151Z,3
2022-12-05T13:10:05.937Z,3
2022-12-05T13:11:06.174Z,4
2022-12-05T13:12:06.083Z,4
2022-12-05T13:13:06.482Z,4
2022-12-05T13:14:06.029Z,4
2022-12-05T13:15:06.398Z,4
2022-12-05T13:16:06.479Z,4
2022-12-05T13:17:06.692Z,3.9
2022-12-05T13:18:06.290Z,4
2022-12-05T13:19:05.661Z,3.9
2022-12-05T13:20:05.817Z,4
2022-12-05T13:21:06.469Z,3.9
2022-12-05T13:22:05.868Z,4
2022-12-05T13:23:11.894Z,4
2022-12-05T13:24:05.376Z,3.9
2022-12-05T13:25:05.775Z,4
2022-12-05T13:26:05.441Z,4
2022-12-05T13:27:04.770Z,4
2022-12-05T13:28:06.020Z,3.9
2022-12-05T13:29:06.492Z,4
2022-12-05T13:30:13.636Z,4
2022-12-05T13:31:06.704Z,3.9
2022-12-05T13:32:06.813Z,3
2022-12-05T13:33:05.979Z,3.9
2022-12-05T13:34:05.587Z,3.9
2022-12-05T13:35:06.073Z,4
2022-12-05T13:36:05.511Z,4
2022-12-05T13:37:06.059Z,3.9
2022-12-05T13:38:06.226Z,3.9
2022-12-05T13:39:05.908Z,4
2022-12-05T13:40:06.246Z,4
2022-12-05T13:41:05.698Z,4
2022-12-05T13:42:06.272Z,3.9
2022-12-05T13:43:05.755Z,4
2022-12-05T13:44:11.088Z,4
2022-12-05T13:45:05.619Z,4
2022-12-05T13:46:05.943Z,4
2022-12-05T13:47:06.011Z,4
2022-12-05T13:48:06.049Z,3.9
2022-12-05T13:49:17.267Z,4
2022-12-05T13:50:05.414Z,4
2022-12-05T13:51:06.446Z,3.9
2022-12-05T13:52:05.770Z,3.9
2022-12-05T13:53:06.191Z,4
2022-12-05T13:54:05.727Z,4
2022-12-05T13:55:06.295Z,3
2022-12-05T13:56:06.536Z,3
2022-12-05T13:57:05.871Z,4
2022-12-05T13:58:06.491Z,4
2022-12-05T13:59:05.814Z,4
2022-12-05T14:00:06.686Z,4